Time,TemperatureF,DewpointF,PressureIn,WindDirection,WindDirectionDegrees,WindSpeedMPH,WindSpeedGustMPH,Humidity,HourlyPrecipIn,Conditions,Clouds,dailyrainin,SoftwareType,DateUTC
2013-03-01 07:22:00,34.8,28.0,29.85,West,278,6.0,11.0,76,0.00,,,0.00,Wunderground v.1.15,2013-03-01 12:22:00,
2013-03-01 07:23:00,34.8,28.0,29.85,WNW,300,7.0,11.0,76,0.00,,,0.00,Wunderground v.1.15,2013-03-01 12:23:00,
2013-03-01 07:24:00,34.8,28.0,29.85,WNW,300,7.0,11.0,76,0.00,,,0.00,Wunderground v.1.15,2013-03-01 12:24:00,
2013-03-01 07:26:00,34.9,28.1,29.85,WNW,290,7.0,11.0,76,0.00,,,0.00,Wunderground v.1.15,2013-03-01 12:26:00,
2013-03-01 07:32:00,35.0,28.2,29.85,NW,309,7.0,7.0,76,0.00,,,0.00,Wunderground v.1.15,2013-03-01 12:32:00,
2013-03-01 07:37:00,35.1,28.3,29.86,WNW,300,5.0,8.0,76,0.00,,,0.00,Wunderground v.1.15,2013-03-01 12:37:00,
2013-03-01 07:43:00,35.2,28.1,29.86,WNW,288,5.0,7.0,75,0.00,,,0.00,Wunderground v.1.15,2013-03-01 12:43:00,
2013-03-01 07:48:00,35.3,28.2,29.86,WNW,291,7.0,8.0,75,0.00,,,0.00,Wunderground v.1.15,2013-03-01 12:48:00,
2013-03-01 07:53:00,35.3,28.2,29.86,West,279,7.0,7.0,75,0.00,,,0.00,Wunderground v.1.15,2013-03-01 12:53:00,
2013-03-01 07:58:00,35.4,27.6,29.87,West,280,7.0,10.0,73,0.00,,,0.00,Wunderground v.1.15,2013-03-01 12:58:00,
2013-03-01 08:04:00,35.5,27.7,29.87,WNW,291,8.0,13.0,73,0.00,,,0.00,Wunderground v.1.15,2013-03-01 13:04:00,
2013-03-01 08:10:00,35.7,27.9,29.87,WNW,294,8.0,8.0,73,0.00,,,0.00,Wunderground v.1.15,2013-03-01 13:10:00,
2013-03-01 08:15:00,35.8,28.3,29.87,WNW,299,6.0,8.0,74,0.00,,,0.00,Wunderground v.1.15,2013-03-01 13:15:00,
2013-03-01 08:20:00,35.9,27.7,29.87,WNW,284,5.0,5.0,72,0.00,,,0.00,Wunderground v.1.15,2013-03-01 13:20:00,
2013-03-01 08:26:00,35.9,27.7,29.88,WSW,257,6.0,8.0,72,0.00,,,0.00,Wunderground v.1.15,2013-03-01 13:26:00,
2013-03-01 08:31:00,36.0,28.2,29.88,West,281,7.0,8.0,73,0.00,,,0.00,Wunderground v.1.15,2013-03-01 13:31:00,
2013-03-01 08:37:00,36.1,28.3,29.88,West,275,7.0,11.0,73,0.00,,,0.00,Wunderground v.1.15,2013-03-01 13:37:00,
2013-03-01 08:42:00,36.1,28.3,29.88,WNW,297,8.0,10.0,73,0.00,,,0.00,Wunderground v.1.15,2013-03-01 13:42:00,
2013-03-01 08:48:00,36.3,28.5,29.88,West,273,7.0,10.0,73,0.00,,,0.00,Wunderground v.1.15,2013-03-01 13:48:00,
2013-03-01 08:53:00,36.2,28.4,29.88,WNW,294,8.0,13.0,73,0.00,,,0.00,Wunderground v.1.15,2013-03-01 13:53:00,
2013-03-01 08:59:00,36.2,28.4,29.88,WNW,299,9.0,13.0,73,0.00,,,0.00,Wunderground v.1.15,2013-03-01 13:59:00,
2013-03-01 09:04:00,36.2,28.0,29.88,WNW,287,8.0,11.0,72,0.00,,,0.00,Wunderground v.1.15,2013-03-01 14:04:00,
2013-03-01 09:10:00,36.1,28.3,29.88,WSW,253,8.0,8.0,73,0.00,,,0.00,Wunderground v.1.15,2013-03-01 14:10:00,
2013-03-01 09:15:00,36.1,28.6,29.88,West,281,7.0,8.0,74,0.00,,,0.00,Wunderground v.1.15,2013-03-01 14:15:00,
2013-03-01 09:21:00,36.4,28.6,29.88,WNW,296,7.0,8.0,73,0.00,,,0.00,Wunderground v.1.15,2013-03-01 14:21:00,
2013-03-01 09:26:00,36.5,29.0,29.87,NW,311,8.0,12.0,74,0.00,,,0.00,Wunderground v.1.15,2013-03-01 14:26:00,
2013-03-01 09:32:00,36.9,29.7,29.87,NW,321,8.0,10.0,75,0.00,,,0.00,Wunderground v.1.15,2013-03-01 14:32:00,
2013-03-01 09:37:00,36.8,29.3,29.87,WNW,296,8.0,11.0,74,0.00,,,0.00,Wunderground v.1.15,2013-03-01 14:37:00,
2013-03-01 09:43:00,36.8,29.0,29.87,WNW,287,8.0,10.0,73,0.00,,,0.00,Wunderground v.1.15,2013-03-01 14:43:00,
2013-03-01 09:48:00,36.8,29.0,29.87,WNW,288,9.0,14.0,73,0.00,,,0.00,Wunderground v.1.15,2013-03-01 14:48:00,
2013-03-01 09:54:00,37.0,28.8,29.87,WNW,286,9.0,9.0,72,0.00,,,0.00,Wunderground v.1.15,2013-03-01 14:54:00,
2013-03-01 09:59:00,36.9,28.7,29.87,WSW,257,9.0,10.0,72,0.00,,,0.00,Wunderground v.1.15,2013-03-01 14:59:00,
2013-03-01 10:05:00,37.0,29.1,29.87,WNW,286,8.0,9.0,73,0.00,,,0.00,Wunderground v.1.15,2013-03-01 15:05:00,
2013-03-01 10:10:00,37.1,29.2,29.87,West,267,7.0,7.0,73,0.00,,,0.00,Wunderground v.1.15,2013-03-01 15:10:00,
2013-03-01 10:15:00,37.1,29.2,29.87,West,263,7.0,10.0,73,0.00,,,0.00,Wunderground v.1.15,2013-03-01 15:15:00,
2013-03-01 10:21:00,37.1,28.6,29.87,WNW,290,8.0,9.0,71,0.00,,,0.00,Wunderground v.1.15,2013-03-01 15:21:00,
2013-03-01 10:26:00,37.2,29.0,29.87,WNW,288,8.0,11.0,72,0.00,,,0.00,Wunderground v.1.15,2013-03-01 15:26:00,
2013-03-01 10:32:00,37.5,29.3,29.87,NW,315,9.0,9.0,72,0.00,,,0.00,Wunderground v.1.15,2013-03-01 15:32:00,
2013-03-01 10:37:00,37.8,28.5,29.87,WNW,298,9.0,14.0,69,0.00,,,0.00,Wunderground v.1.15,2013-03-01 15:37:00,
2013-03-01 10:43:00,37.8,28.9,29.87,NW,317,9.0,9.0,70,0.00,,,0.00,Wunderground v.1.15,2013-03-01 15:43:00,
2013-03-01 10:48:00,38.0,29.1,29.87,NNW,330,7.0,9.0,70,0.00,,,0.00,Wunderground v.1.15,2013-03-01 15:48:00,
2013-03-01 10:53:00,38.2,28.6,29.87,WNW,300,7.0,10.0,68,0.00,,,0.00,Wunderground v.1.15,2013-03-01 15:53:00,
2013-03-01 10:59:00,38.1,28.5,29.87,West,270,6.0,10.0,68,0.00,,,0.00,Wunderground v.1.15,2013-03-01 15:59:00,
2013-03-01 11:04:00,37.9,28.6,29.87,West,275,7.0,8.0,69,0.00,,,0.00,Wunderground v.1.15,2013-03-01 16:04:00,
2013-03-01 11:10:00,38.0,28.7,29.87,WNW,299,7.0,8.0,69,0.00,,,0.00,Wunderground v.1.15,2013-03-01 16:10:00,
2013-03-01 11:15:00,37.8,28.5,29.87,WNW,297,8.0,10.0,69,0.00,,,0.00,Wunderground v.1.15,2013-03-01 16:15:00,
2013-03-01 11:21:00,37.8,28.2,29.87,NW,317,8.0,8.0,68,0.00,,,0.00,Wunderground v.1.15,2013-03-01 16:21:00,
2013-03-01 11:26:00,37.7,28.1,29.87,NNW,329,7.0,11.0,68,0.00,,,0.00,Wunderground v.1.15,2013-03-01 16:26:00,
2013-03-01 11:32:00,37.7,28.1,29.88,NW,315,6.0,7.0,68,0.00,,,0.00,Wunderground v.1.15,2013-03-01 16:32:00,
2013-03-01 11:37:00,37.7,27.7,29.88,WNW,286,6.0,9.0,67,0.00,,,0.00,Wunderground v.1.15,2013-03-01 16:37:00,
2013-03-01 11:42:00,37.7,27.7,29.88,WNW,299,6.0,7.0,67,0.00,,,0.00,Wunderground v.1.15,2013-03-01 16:42:00,
2013-03-01 11:48:00,37.7,28.1,29.88,West,277,6.0,8.0,68,0.00,,,0.00,Wunderground v.1.15,2013-03-01 16:48:00,
2013-03-01 11:54:00,37.9,27.9,29.88,NW,326,5.0,8.0,67,0.00,,,0.00,Wunderground v.1.15,2013-03-01 16:54:00,
2013-03-01 11:59:00,37.9,28.3,29.88,NW,325,5.0,8.0,68,0.00,,,0.00,Wunderground v.1.15,2013-03-01 16:59:00,
2013-03-01 12:04:00,37.9,27.9,29.88,WNW,299,7.0,10.0,67,0.00,,,0.00,Wunderground v.1.15,2013-03-01 17:04:00,
2013-03-01 12:10:00,38.1,27.7,29.88,NW,317,6.0,6.0,66,0.00,,,0.00,Wunderground v.1.15,2013-03-01 17:10:00,
2013-03-01 12:15:00,38.1,27.7,29.88,NW,317,6.0,7.0,66,0.00,,,0.00,Wunderground v.1.15,2013-03-01 17:15:00,
2013-03-01 12:21:00,38.2,27.8,29.88,NW,311,5.0,5.0,66,0.00,,,0.00,Wunderground v.1.15,2013-03-01 17:21:00,
2013-03-01 12:26:00,38.3,28.3,29.88,NW,317,4.0,5.0,67,0.00,,,0.00,Wunderground v.1.15,2013-03-01 17:26:00,
2013-03-01 12:32:00,38.1,27.0,29.87,NW,312,6.0,7.0,64,0.00,,,0.00,Wunderground v.1.15,2013-03-01 17:32:00,
2013-03-01 12:37:00,37.9,27.9,29.87,WNW,290,7.0,10.0,67,0.00,,,0.00,Wunderground v.1.15,2013-03-01 17:37:00,
2013-03-01 12:42:00,37.7,28.1,29.87,West,268,7.0,7.0,68,0.00,,,0.00,Wunderground v.1.15,2013-03-01 17:42:00,
2013-03-01 12:48:00,37.5,28.2,29.87,West,275,6.0,10.0,69,0.00,,,0.00,Wunderground v.1.15,2013-03-01 17:48:00,
2013-03-01 12:53:00,37.3,28.1,29.87,West,274,7.0,11.0,69,0.00,,,0.00,Wunderground v.1.15,2013-03-01 17:53:00,
2013-03-01 12:59:00,37.0,27.8,29.87,West,281,8.0,11.0,69,0.00,,,0.00,Wunderground v.1.15,2013-03-01 17:59:00,
2013-03-01 13:04:00,36.9,27.7,29.87,West,281,7.0,8.0,69,0.00,,,0.00,Wunderground v.1.15,2013-03-01 18:04:00,
2013-03-01 13:10:00,37.0,27.1,29.86,NW,307,7.0,7.0,67,0.00,,,0.00,Wunderground v.1.15,2013-03-01 18:10:00,
2013-03-01 13:15:00,37.1,27.2,29.86,WNW,283,7.0,12.0,67,0.00,,,0.00,Wunderground v.1.15,2013-03-01 18:15:00,
2013-03-01 13:21:00,37.2,26.9,29.86,WNW,292,7.0,7.0,66,0.00,,,0.00,Wunderground v.1.15,2013-03-01 18:21:00,
2013-03-01 13:26:00,37.3,27.0,29.86,NNW,330,8.0,9.0,66,0.00,,,0.00,Wunderground v.1.15,2013-03-01 18:26:00,
2013-03-01 13:32:00,37.7,27.4,29.86,WNW,290,7.0,7.0,66,0.00,,,0.00,Wunderground v.1.15,2013-03-01 18:32:00,
2013-03-01 13:37:00,37.9,27.2,29.86,WNW,300,7.0,11.0,65,0.00,,,0.00,Wunderground v.1.15,2013-03-01 18:37:00,
2013-03-01 13:43:00,37.7,27.0,29.86,West,279,8.0,8.0,65,0.00,,,0.00,Wunderground v.1.15,2013-03-01 18:43:00,
2013-03-01 13:48:00,37.5,27.2,29.86,WNW,283,7.0,11.0,66,0.00,,,0.00,Wunderground v.1.15,2013-03-01 18:48:00,
2013-03-01 13:53:00,37.2,27.2,29.86,West,281,7.0,8.0,67,0.00,,,0.00,Wunderground v.1.15,2013-03-01 18:53:00,
2013-03-01 13:59:00,36.9,27.7,29.86,West,267,7.0,9.0,69,0.00,,,0.00,Wunderground v.1.15,2013-03-01 18:59:00,
2013-03-01 14:04:00,36.8,27.2,29.86,WNW,289,7.0,8.0,68,0.00,,,0.00,Wunderground v.1.15,2013-03-01 19:04:00,
2013-03-01 14:09:00,36.8,27.6,29.86,WNW,294,6.0,8.0,69,0.00,,,0.00,Wunderground v.1.15,2013-03-01 19:09:00,
2013-03-01 14:15:00,36.9,27.7,29.86,NW,306,6.0,8.0,69,0.00,,,0.00,Wunderground v.1.15,2013-03-01 19:15:00,
2013-03-01 14:20:00,36.8,26.9,29.86,WNW,300,7.0,10.0,67,0.00,,,0.00,Wunderground v.1.15,2013-03-01 19:20:00,
2013-03-01 14:25:00,36.6,27.0,29.86,West,268,8.0,10.0,68,0.00,,,0.00,Wunderground v.1.15,2013-03-01 19:25:00,
2013-03-01 14:31:00,36.6,27.0,29.86,West,279,8.0,8.0,68,0.00,,,0.00,Wunderground v.1.15,2013-03-01 19:31:00,
2013-03-01 14:36:00,36.7,28.5,29.86,WNW,300,6.0,8.0,72,0.00,,,0.00,Wunderground v.1.15,2013-03-01 19:36:00,
2013-03-01 14:42:00,36.7,26.8,29.86,NW,308,6.0,9.0,67,0.00,,,0.00,Wunderground v.1.15,2013-03-01 19:42:00,
2013-03-01 14:47:00,36.6,27.0,29.86,WNW,283,6.0,9.0,68,0.00,,,0.00,Wunderground v.1.15,2013-03-01 19:47:00,
2013-03-01 14:53:00,36.5,26.9,29.86,West,280,6.0,10.0,68,0.00,,,0.00,Wunderground v.1.15,2013-03-01 19:53:00,
2013-03-01 14:58:00,36.4,26.8,29.86,NW,314,6.0,10.0,68,0.00,,,0.00,Wunderground v.1.15,2013-03-01 19:58:00,
2013-03-01 15:03:00,36.4,26.8,29.86,West,267,7.0,7.0,68,0.00,,,0.00,Wunderground v.1.15,2013-03-01 20:03:00,
2013-03-01 15:09:00,36.6,26.7,29.86,WNW,286,6.0,8.0,67,0.00,,,0.00,Wunderground v.1.15,2013-03-01 20:09:00,
2013-03-01 15:14:00,36.8,26.9,29.85,NW,314,6.0,8.0,67,0.00,,,0.00,Wunderground v.1.15,2013-03-01 20:14:00,
2013-03-01 15:19:00,37.0,27.1,29.85,NW,318,6.0,10.0,67,0.00,,,0.00,Wunderground v.1.15,2013-03-01 20:19:00,
2013-03-01 15:25:00,37.4,26.7,29.85,NW,306,5.0,6.0,65,0.00,,,0.00,Wunderground v.1.15,2013-03-01 20:25:00,
2013-03-01 15:30:00,37.5,26.8,29.85,WNW,296,4.0,6.0,65,0.00,,,0.00,Wunderground v.1.15,2013-03-01 20:30:00,
2013-03-01 15:35:00,37.6,26.9,29.85,WNW,301,5.0,8.0,65,0.00,,,0.00,Wunderground v.1.15,2013-03-01 20:35:00,
2013-03-01 15:41:00,37.9,27.5,29.85,NW,323,7.0,10.0,66,0.00,,,0.00,Wunderground v.1.15,2013-03-01 20:41:00,
2013-03-01 15:46:00,38.1,27.0,29.85,WNW,303,7.0,11.0,64,0.00,,,0.00,Wunderground v.1.15,2013-03-01 20:46:00,
2013-03-01 15:51:00,38.3,26.8,29.85,NW,313,7.0,11.0,63,0.00,,,0.00,Wunderground v.1.15,2013-03-01 20:51:00,
2013-03-01 15:57:00,37.4,25.6,29.86,WNW,290,9.0,14.0,62,0.00,,,0.00,Wunderground v.1.15,2013-03-01 20:57:00,
2013-03-01 16:02:00,37.0,25.9,29.86,NNW,329,10.0,10.0,64,0.00,,,0.00,Wunderground v.1.15,2013-03-01 21:02:00,
2013-03-01 16:07:00,36.9,26.2,29.85,WNW,288,7.0,10.0,65,0.00,,,0.00,Wunderground v.1.15,2013-03-01 21:07:00,
2013-03-01 16:13:00,36.9,26.2,29.85,NW,320,7.0,7.0,65,0.00,,,0.00,Wunderground v.1.15,2013-03-01 21:13:00,
2013-03-01 16:18:00,37.0,26.3,29.86,NW,313,6.0,9.0,65,0.00,,,0.00,Wunderground v.1.15,2013-03-01 21:18:00,
2013-03-01 16:24:00,37.1,26.4,29.86,West,281,6.0,6.0,65,0.00,,,0.00,Wunderground v.1.15,2013-03-01 21:24:00,
2013-03-01 16:29:00,37.2,26.1,29.86,WNW,303,5.0,6.0,64,0.00,,,0.00,Wunderground v.1.15,2013-03-01 21:29:00,
2013-03-01 16:34:00,37.3,26.6,29.86,NW,317,5.0,7.0,65,0.00,,,0.00,Wunderground v.1.15,2013-03-01 21:34:00,
2013-03-01 16:40:00,37.2,25.8,29.86,NW,324,6.0,8.0,63,0.00,,,0.00,Wunderground v.1.15,2013-03-01 21:40:00,
2013-03-01 16:45:00,37.1,26.0,29.86,NNW,343,7.0,8.0,64,0.00,,,0.00,Wunderground v.1.15,2013-03-01 21:45:00,
2013-03-01 16:51:00,37.1,25.7,29.87,WNW,303,8.0,8.0,63,0.00,,,0.00,Wunderground v.1.15,2013-03-01 21:51:00,
2013-03-01 16:57:00,36.9,25.1,29.86,WNW,283,7.0,8.0,62,0.00,,,0.00,Wunderground v.1.15,2013-03-01 21:57:00,
2013-03-01 17:02:00,36.8,25.0,29.87,NW,306,7.0,10.0,62,0.00,,,0.00,Wunderground v.1.15,2013-03-01 22:02:00,
2013-03-01 17:07:00,36.8,25.0,29.87,WNW,296,7.0,10.0,62,0.00,,,0.00,Wunderground v.1.15,2013-03-01 22:07:00,
2013-03-01 17:13:00,36.7,25.7,29.87,West,268,6.0,7.0,64,0.00,,,0.00,Wunderground v.1.15,2013-03-01 22:13:00,
2013-03-01 17:18:00,36.6,25.2,29.87,WNW,295,6.0,7.0,63,0.00,,,0.00,Wunderground v.1.15,2013-03-01 22:18:00,
2013-03-01 17:23:00,36.5,25.8,29.87,NW,326,5.0,9.0,65,0.00,,,0.00,Wunderground v.1.15,2013-03-01 22:23:00,
2013-03-01 17:29:00,36.3,25.3,29.87,WNW,302,6.0,9.0,64,0.00,,,0.00,Wunderground v.1.15,2013-03-01 22:29:00,
2013-03-01 17:34:00,36.2,25.9,29.87,NNW,346,7.0,8.0,66,0.00,,,0.00,Wunderground v.1.15,2013-03-01 22:34:00,
2013-03-01 17:40:00,36.0,25.4,29.88,WNW,300,7.0,8.0,65,0.00,,,0.00,Wunderground v.1.15,2013-03-01 22:40:00,
2013-03-01 17:45:00,36.0,25.4,29.88,WNW,299,6.0,8.0,65,0.00,,,0.00,Wunderground v.1.15,2013-03-01 22:45:00,
2013-03-01 17:50:00,36.0,25.4,29.88,WNW,298,6.0,6.0,65,0.00,,,0.00,Wunderground v.1.15,2013-03-01 22:50:00,
2013-03-01 17:56:00,35.9,25.3,29.88,NW,315,6.0,7.0,65,0.00,,,0.00,Wunderground v.1.15,2013-03-01 22:56:00,
2013-03-01 18:01:00,35.9,25.3,29.88,WNW,287,6.0,7.0,65,0.00,,,0.00,Wunderground v.1.15,2013-03-01 23:01:00,
2013-03-01 18:06:00,35.9,25.6,29.88,NW,309,6.0,7.0,66,0.00,,,0.00,Wunderground v.1.15,2013-03-01 23:06:00,
2013-03-01 18:12:00,35.8,25.5,29.89,NW,310,5.0,7.0,66,0.00,,,0.00,Wunderground v.1.15,2013-03-01 23:12:00,
2013-03-01 18:17:00,35.8,25.5,29.89,NW,325,5.0,7.0,66,0.00,,,0.00,Wunderground v.1.15,2013-03-01 23:17:00,
2013-03-01 18:23:00,35.7,25.4,29.89,WNW,296,6.0,8.0,66,0.00,,,0.00,Wunderground v.1.15,2013-03-01 23:23:00,
2013-03-01 18:29:00,35.6,25.4,29.89,NW,306,5.0,9.0,66,0.00,,,0.00,Wunderground v.1.15,2013-03-01 23:29:00,
2013-03-01 18:34:00,35.5,25.6,29.89,NW,310,5.0,11.0,67,0.00,,,0.00,Wunderground v.1.15,2013-03-01 23:34:00,
2013-03-01 18:39:00,35.4,25.9,29.89,NW,323,6.0,11.0,68,0.00,,,0.00,Wunderground v.1.15,2013-03-01 23:39:00,
2013-03-01 18:45:00,35.2,26.0,29.89,NNW,327,7.0,9.0,69,0.00,,,0.00,Wunderground v.1.15,2013-03-01 23:45:00,
2013-03-01 18:50:00,35.1,25.9,29.89,NW,310,6.0,6.0,69,0.00,,,0.00,Wunderground v.1.15,2013-03-01 23:50:00,
2013-03-01 18:55:00,35.0,25.9,29.89,NW,313,5.0,11.0,69,0.00,,,0.00,Wunderground v.1.15,2013-03-01 23:55:00,
2013-03-01 19:01:00,35.0,26.2,29.90,NW,319,6.0,6.0,70,0.00,,,0.00,Wunderground v.1.15,2013-03-02 00:01:00,
2013-03-01 19:06:00,34.7,26.3,29.90,NNW,340,6.0,7.0,71,0.00,,,0.00,Wunderground v.1.15,2013-03-02 00:06:00,
2013-03-01 19:11:00,34.4,26.3,29.90,NW,321,6.0,6.0,72,0.00,,,0.00,Wunderground v.1.15,2013-03-02 00:11:00,
2013-03-01 19:17:00,34.4,26.6,29.90,NW,319,6.0,7.0,73,0.00,,,0.00,Wunderground v.1.15,2013-03-02 00:17:00,
2013-03-01 19:22:00,34.3,26.5,29.91,NW,319,5.0,6.0,73,0.00,,,0.00,Wunderground v.1.15,2013-03-02 00:22:00,
2013-03-01 19:27:00,34.2,26.1,29.90,WNW,301,4.0,6.0,72,0.00,,,0.00,Wunderground v.1.15,2013-03-02 00:27:00,
2013-03-01 19:33:00,34.3,25.9,29.91,WNW,299,5.0,6.0,71,0.00,,,0.00,Wunderground v.1.15,2013-03-02 00:33:00,
2013-03-01 19:38:00,34.3,25.9,29.91,WNW,298,4.0,6.0,71,0.00,,,0.00,Wunderground v.1.15,2013-03-02 00:38:00,
2013-03-01 19:43:00,34.1,25.7,29.91,WNW,298,3.0,4.0,71,0.00,,,0.00,Wunderground v.1.15,2013-03-02 00:43:00,
2013-03-01 19:49:00,34.1,25.3,29.91,NW,310,3.0,6.0,70,0.00,,,0.00,Wunderground v.1.15,2013-03-02 00:49:00,
2013-03-01 19:54:00,34.3,25.5,29.91,NW,304,6.0,10.0,70,0.00,,,0.00,Wunderground v.1.15,2013-03-02 00:54:00,
2013-03-01 20:00:00,34.2,25.1,29.92,WNW,295,8.0,8.0,69,0.00,,,0.00,Wunderground v.1.15,2013-03-02 01:00:00,
2013-03-01 20:05:00,34.1,25.3,29.92,WNW,294,8.0,12.0,70,0.00,,,0.00,Wunderground v.1.15,2013-03-02 01:05:00,
2013-03-01 20:10:00,33.9,25.1,29.92,NW,321,7.0,7.0,70,0.00,,,0.00,Wunderground v.1.15,2013-03-02 01:10:00,
2013-03-01 20:16:00,33.7,25.0,29.92,WNW,302,7.0,9.0,70,0.00,,,0.00,Wunderground v.1.15,2013-03-02 01:16:00,
2013-03-01 20:21:00,33.7,25.0,29.92,WNW,288,6.0,6.0,70,0.00,,,0.00,Wunderground v.1.15,2013-03-02 01:21:00,
2013-03-01 20:26:00,33.6,24.5,29.92,WNW,293,5.0,7.0,69,0.00,,,0.00,Wunderground v.1.15,2013-03-02 01:26:00,
2013-03-01 20:32:00,33.4,24.3,29.92,WNW,300,6.0,8.0,69,0.00,,,0.00,Wunderground v.1.15,2013-03-02 01:32:00,
2013-03-01 20:37:00,33.1,24.4,29.93,NW,311,6.0,8.0,70,0.00,,,0.00,Wunderground v.1.15,2013-03-02 01:37:00,
2013-03-01 20:42:00,32.8,24.1,29.93,NW,312,5.0,7.0,70,0.00,,,0.00,Wunderground v.1.15,2013-03-02 01:42:00,
2013-03-01 20:48:00,32.5,24.1,29.93,NW,309,5.0,12.0,71,0.00,,,0.00,Wunderground v.1.15,2013-03-02 01:48:00,
2013-03-01 20:53:00,32.4,24.0,29.92,WNW,285,7.0,10.0,71,0.00,,,0.00,Wunderground v.1.15,2013-03-02 01:53:00,
2013-03-01 20:58:00,32.3,23.9,29.93,NW,309,7.0,10.0,71,0.00,,,0.00,Wunderground v.1.15,2013-03-02 01:58:00,
2013-03-01 21:03:00,32.1,24.1,29.93,NW,306,6.0,9.0,72,0.00,,,0.00,Wunderground v.1.15,2013-03-02 02:03:00,
2013-03-01 21:09:00,32.0,23.7,29.93,WNW,292,5.0,9.0,71,0.00,,,0.00,Wunderground v.1.15,2013-03-02 02:09:00,
2013-03-01 21:14:00,32.0,23.7,29.93,WNW,295,5.0,8.0,71,0.00,,,0.00,Wunderground v.1.15,2013-03-02 02:14:00,
2013-03-01 21:19:00,32.0,23.7,29.93,NW,306,6.0,8.0,71,0.00,,,0.00,Wunderground v.1.15,2013-03-02 02:19:00,
2013-03-01 21:25:00,32.2,23.8,29.94,NW,315,6.0,11.0,71,0.00,,,0.00,Wunderground v.1.15,2013-03-02 02:25:00,
2013-03-01 21:30:00,32.3,24.3,29.94,NW,304,6.0,6.0,72,0.00,,,0.00,Wunderground v.1.15,2013-03-02 02:30:00,
2013-03-01 21:36:00,32.4,24.0,29.94,NW,309,6.0,12.0,71,0.00,,,0.00,Wunderground v.1.15,2013-03-02 02:36:00,
2013-03-01 21:41:00,32.4,24.0,29.94,NW,309,6.0,9.0,71,0.00,,,0.00,Wunderground v.1.15,2013-03-02 02:41:00,
2013-03-01 21:47:00,32.4,24.0,29.94,NW,319,7.0,9.0,71,0.00,,,0.00,Wunderground v.1.15,2013-03-02 02:47:00,